Aérodrome :
LOGIN :

S'inscrire | Disclaimer

   EN    FR    IT 

 










Légende :    VFR   VFR Marginal   IFR   IFR Intensif   IFR Très Intensif
Visi : 
Plafond : 
>= 8 km
>= 3000ft
5 à 8 km
1000 à 3000 ft
1500m à 5 km
500 à 1000 ft
800 à 1500m
200 à 500 ft
< 800m
< 200 ft
Symboles :   Orages  Brouillard  Fortes neiges  Fortes précipitations  Vent > 20 kt
SIGMETs :   Divers  Orages  Givrage  Turbulence  Onde Orograph.  Cendres Volcan.






- Altitude de l'aérodrome : 72 ft
- Code IATA : UDE


EHVK - Volkel Airbase

DERNIER METAR :
  • 240355Z AUTO VRB02KT 0600 FG OVC000 01/01 Q1024 RED

METARs EXPIRÉS :
  • 240325Z AUTO 19004KT 130V240 0700 FG OVC000 01/01 Q1024 RED
  • 240258Z AUTO VRB02KT 0650 FG OVC001 01/01 Q1024 RED
  • 240255Z AUTO 16003KT 160V230 1200 BR OVC001 01/01 Q1024 RED
  • 240225Z AUTO 21003KT 120V180 1300 BR OVC001 02/01 Q1025 RED
  • 240203Z AUTO 15003KT 110V190 1500 BR OVC001 02/01 Q1025 RED
  • 240155Z AUTO 12003KT 070V180 1700 BR OVC001 02/01 Q1025 RED
  • 240126Z AUTO VRB02KT 1700 BR OVC001 02/02 Q1025 RED

TAF TAF EHVK
Valide du 24 à 02h jusqu'au 24 à 14h UTC


240113Z 2402/2414 19004KT 1500BR OVC002
TEMPO 2402/2408 0800 FG OVC001
PROB30
TEMPO 2403/2408 0300 FG FZFG OVC000
BECMG 2408/2410 4000 BR BKN005
BECMG 2410/2413 9999 NSW FEW008 BKN015
PROB30 2410/2414 SCT005 BKN008



MET'MAP, la Météo Aéronautique d'un coup d'oeil ! - Copyright ORBIFLY Décembre 2007 - Disclaimer

ORBIFLY MET'MAP TEAM :

Programmation & Développement : Alexandra Zaïnal
Sur une idée originale de : Baudouin d'Aumeries
Assistance à la programmation : Marc-Olivier Méhu
Soutien technique & logistique : Manuel Goepfert

Contact : metmap@orbifly.com




SOURCES & CREDITS :

   NOAA